Time;durP1;ratioP1;P1;durP2;ratioP2;P2;SDS_P1;SDS_P2;PMS_P1;PMS_P2;Temp;Humidity;BMP_temperature;BMP_pressure;BME280_temperature;BME280_humidity;BME280_pressure;Samples;Min_cycle;Max_cycle;Signal;HPM_P1;HPM_P2
2023/05/11 00:00:23;;;;;;;4.13;1.80;;;10.90;99.90;;;;;;5052456;28;20041;-60
2023/05/11 00:02:50;;;;;;;3.78;1.38;;;10.90;99.90;;;;;;5053405;28;20041;-60
2023/05/11 00:05:16;;;;;;;4.63;1.30;;;10.90;99.90;;;;;;5052835;28;20056;-60
2023/05/11 00:07:43;;;;;;;6.53;1.20;;;10.90;99.90;;;;;;5053093;28;20380;-61
2023/05/11 00:10:10;;;;;;;5.18;1.30;;;10.90;99.90;;;;;;5052910;28;20041;-60
2023/05/11 00:12:37;;;;;;;5.43;1.35;;;10.80;99.90;;;;;;5053106;28;20068;-60
2023/05/11 00:15:03;;;;;;;5.28;1.20;;;10.80;99.90;;;;;;5057678;28;20049;-60
2023/05/11 00:17:30;;;;;;;5.10;1.30;;;10.80;99.90;;;;;;5096558;28;20052;-61
2023/05/11 00:19:57;;;;;;;6.40;1.60;;;10.80;99.90;;;;;;5097159;28;20082;-60
2023/05/11 00:22:23;;;;;;;5.53;1.30;;;10.70;99.90;;;;;;5096421;28;20044;-61
2023/05/11 00:24:50;;;;;;;4.68;1.15;;;10.70;99.90;;;;;;5078640;28;20051;-60
2023/05/11 00:27:17;;;;;;;3.42;1.60;;;10.60;99.90;;;;;;5096618;28;20566;-61
2023/05/11 00:29:44;;;;;;;4.93;1.40;;;10.60;99.90;;;;;;5096401;28;20110;-61
2023/05/11 00:32:10;;;;;;;3.67;1.40;;;10.50;99.90;;;;;;5096403;28;20471;-61
2023/05/11 00:34:37;;;;;;;5.70;1.60;;;10.50;99.90;;;;;;5078474;28;20059;-61
2023/05/11 00:37:04;;;;;;;6.05;1.67;;;10.50;99.90;;;;;;5078271;28;20040;-60
2023/05/11 00:39:37;;;;;;;4.15;1.33;;;10.50;99.90;;;;;;5096232;28;20055;-61
2023/05/11 00:42:04;;;;;;;5.35;1.58;;;10.40;99.90;;;;;;5096702;28;20039;-61
2023/05/11 00:44:32;;;;;;;6.00;1.50;;;10.40;99.90;;;;;;5096343;28;20197;-61
2023/05/11 00:46:59;;;;;;;5.68;1.70;;;10.40;99.90;;;;;;5096175;28;20044;-61
2023/05/11 00:49:26;;;;;;;5.63;1.58;;;10.40;99.90;;;;;;5077769;28;20039;-61
2023/05/11 00:51:53;;;;;;;5.45;1.60;;;10.40;99.90;;;;;;5095863;28;20487;-61
2023/05/11 00:54:20;;;;;;;7.40;1.50;;;10.40;99.90;;;;;;5096211;28;20188;-60
2023/05/11 00:56:47;;;;;;;7.50;1.90;;;10.30;99.90;;;;;;5077940;28;20054;-61
2023/05/11 00:59:14;;;;;;;7.40;2.05;;;10.30;99.90;;;;;;5077703;28;20040;-59
2023/05/11 01:01:40;;;;;;;6.15;1.42;;;10.30;99.90;;;;;;5096006;28;20047;-61
2023/05/11 01:04:07;;;;;;;6.57;1.60;;;10.30;99.90;;;;;;5077984;28;20040;-61
2023/05/11 01:06:35;;;;;;;5.75;1.50;;;10.30;99.90;;;;;;5060978;28;20054;-60
2023/05/11 01:09:02;;;;;;;7.85;1.70;;;10.30;99.90;;;;;;5095524;28;20036;-60
2023/05/11 01:11:30;;;;;;;9.68;1.92;;;10.30;99.90;;;;;;5077677;28;20130;-61
2023/05/11 01:13:57;;;;;;;7.78;1.88;;;10.30;99.90;;;;;;5095999;28;20045;-61
2023/05/11 01:16:24;;;;;;;7.43;1.80;;;10.30;99.90;;;;;;5077178;28;20048;-61
2023/05/11 01:18:56;;;;;;;4.32;1.60;;;10.30;99.90;;;;;;5077247;28;20037;-61
2023/05/11 01:21:23;;;;;;;7.38;1.77;;;10.30;99.90;;;;;;5076901;28;20501;-60
2023/05/11 01:23:50;;;;;;;6.53;1.80;;;10.30;99.90;;;;;;5076922;28;20036;-61
2023/05/11 01:26:16;;;;;;;10.25;1.83;;;10.30;99.90;;;;;;5076886;28;20052;-61
2023/05/11 01:28:43;;;;;;;5.75;1.90;;;10.30;99.90;;;;;;5095598;28;20108;-60
2023/05/11 01:31:10;;;;;;;6.35;1.75;;;10.30;99.90;;;;;;5094952;28;20047;-60
2023/05/11 01:33:37;;;;;;;7.78;1.80;;;10.30;99.90;;;;;;5077282;28;20040;-61
2023/05/11 01:36:06;;;;;;;7.75;1.85;;;10.30;99.90;;;;;;5077100;28;20403;-61
2023/05/11 01:38:33;;;;;;;7.05;1.67;;;10.40;99.90;;;;;;5095231;28;20040;-61
2023/05/11 01:40:59;;;;;;;7.38;1.80;;;10.40;99.90;;;;;;5076847;28;20044;-60
2023/05/11 01:43:26;;;;;;;7.55;2.13;;;10.40;99.90;;;;;;5095585;28;20070;-61
2023/05/11 01:45:53;;;;;;;6.90;1.83;;;10.40;99.90;;;;;;5094895;28;20047;-61
2023/05/11 01:48:20;;;;;;;9.32;2.15;;;10.40;99.90;;;;;;5095264;28;20070;-61
2023/05/11 01:50:47;;;;;;;5.90;1.70;;;10.50;99.90;;;;;;5094539;28;20475;-60
2023/05/11 01:53:13;;;;;;;8.15;1.70;;;10.50;99.90;;;;;;5095090;28;20064;-60
2023/05/11 01:55:40;;;;;;;7.07;1.80;;;10.60;99.90;;;;;;5095070;28;20036;-61
2023/05/11 01:58:07;;;;;;;6.50;1.80;;;10.50;99.90;;;;;;5094497;28;20074;-60
2023/05/11 02:00:34;;;;;;;5.60;1.60;;;10.60;99.90;;;;;;5094452;28;20090;-60
2023/05/11 02:03:00;;;;;;;6.90;1.55;;;10.60;99.90;;;;;;5094778;28;20068;-60
2023/05/11 02:05:28;;;;;;;7.53;2.00;;;10.60;99.90;;;;;;5076932;28;20047;-61
2023/05/11 02:07:56;;;;;;;9.95;1.88;;;10.60;99.90;;;;;;5076326;28;20383;-60
2023/05/11 02:10:23;;;;;;;10.27;2.05;;;10.60;99.90;;;;;;5076466;28;20402;-60
2023/05/11 02:12:51;;;;;;;8.18;1.92;;;10.60;99.90;;;;;;5095041;28;20135;-60
2023/05/11 02:15:20;;;;;;;5.18;1.85;;;10.60;99.90;;;;;;5076039;28;20052;-61
2023/05/11 02:17:47;;;;;;;8.18;1.83;;;10.60;99.90;;;;;;5076476;28;20387;-61
2023/05/11 02:20:13;;;;;;;5.70;1.98;;;10.70;99.90;;;;;;5059495;28;20043;-61
2023/05/11 02:22:40;;;;;;;6.53;1.77;;;10.70;99.90;;;;;;5075888;28;20032;-61
2023/05/11 02:25:07;;;;;;;6.65;1.90;;;10.70;99.90;;;;;;5076013;28;20548;-60
2023/05/11 02:27:37;;;;;;;12.35;2.72;;;10.70;99.90;;;;;;5076222;28;20066;-60
2023/05/11 02:30:04;;;;;;;8.88;1.83;;;10.70;99.90;;;;;;5094047;28;20040;-60
2023/05/11 02:32:32;;;;;;;11.25;1.92;;;10.70;99.90;;;;;;5076001;28;20448;-62
2023/05/11 02:34:58;;;;;;;9.95;2.50;;;10.70;99.90;;;;;;5076539;28;20156;-62
2023/05/11 02:37:25;;;;;;;9.23;1.98;;;10.70;99.90;;;;;;5075567;28;20491;-62
2023/05/11 02:39:53;;;;;;;9.00;1.80;;;10.80;99.90;;;;;;5075056;28;20044;-62
2023/05/11 02:42:20;;;;;;;11.05;1.92;;;10.80;99.90;;;;;;5075885;28;20390;-61
2023/05/11 02:44:48;;;;;;;8.70;1.85;;;10.70;99.90;;;;;;5075687;28;20506;-61
2023/05/11 02:47:16;;;;;;;11.38;2.40;;;10.70;99.90;;;;;;5075891;28;20446;-61
2023/05/11 02:49:43;;;;;;;12.95;2.28;;;10.80;99.90;;;;;;5075479;28;20050;-62
2023/05/11 02:52:10;;;;;;;8.80;2.90;;;10.70;99.90;;;;;;5075899;28;20063;-62
2023/05/11 02:54:42;;;;;;;8.55;2.10;;;10.70;99.90;;;;;;5075645;28;20440;-62
2023/05/11 02:57:09;;;;;;;10.73;2.85;;;10.70;99.90;;;;;;5075642;28;20482;-63
2023/05/11 02:59:36;;;;;;;7.55;1.77;;;10.80;99.90;;;;;;5075316;28;20040;-61
2023/05/11 03:02:03;;;;;;;11.90;2.60;;;10.80;99.90;;;;;;5075640;28;20139;-62
2023/05/11 03:04:30;;;;;;;15.38;2.33;;;10.80;99.90;;;;;;5076074;28;20090;-62
2023/05/11 03:06:56;;;;;;;14.13;2.67;;;10.80;99.90;;;;;;5075829;28;20538;-62
2023/05/11 03:09:23;;;;;;;10.65;2.65;;;10.80;99.90;;;;;;5093529;28;20040;-62
2023/05/11 03:11:50;;;;;;;11.90;2.60;;;10.80;99.90;;;;;;5058847;28;20376;-61
2023/05/11 03:14:17;;;;;;;12.13;2.63;;;10.80;99.90;;;;;;5075614;28;20040;-62
2023/05/11 03:16:44;;;;;;;7.82;2.13;;;10.80;99.90;;;;;;5093562;28;20048;-61
2023/05/11 03:19:13;;;;;;;10.10;2.58;;;10.90;99.90;;;;;;5075640;28;20044;-61
2023/05/11 03:21:40;;;;;;;11.30;2.38;;;10.90;99.90;;;;;;5075316;28;20064;-62
2023/05/11 03:24:07;;;;;;;12.35;3.15;;;10.90;99.90;;;;;;5093237;28;20066;-59
2023/05/11 03:26:34;;;;;;;12.15;2.67;;;10.90;99.90;;;;;;5075444;28;20410;-62
2023/05/11 03:29:01;;;;;;;11.73;3.03;;;10.90;99.90;;;;;;5093353;28;20036;-62
2023/05/11 03:31:28;;;;;;;13.93;2.83;;;10.90;99.90;;;;;;5075133;28;20105;-61
2023/05/11 03:33:57;;;;;;;12.15;2.33;;;11.00;99.90;;;;;;5075634;28;20047;-62
2023/05/11 03:36:24;;;;;;;13.38;2.75;;;11.00;99.90;;;;;;5075657;28;20438;-62
2023/05/11 03:38:51;;;;;;;10.98;2.72;;;11.00;99.90;;;;;;5075204;28;20036;-61
2023/05/11 03:41:22;;;;;;;13.43;3.00;;;11.00;99.90;;;;;;5075108;28;20044;-62
2023/05/11 03:43:52;;;;;;;14.35;3.25;;;11.00;99.90;;;;;;5075415;28;20041;-61
2023/05/11 03:46:20;;;;;;;13.98;3.05;;;10.90;99.90;;;;;;5074818;28;20044;-60
2023/05/11 03:48:47;;;;;;;12.65;2.97;;;10.90;99.90;;;;;;5093552;28;20044;-61
2023/05/11 03:51:18;;;;;;;14.57;3.42;;;10.90;99.90;;;;;;5078833;28;20056;-61
2023/05/11 03:53:45;;;;;;;13.23;3.00;;;10.90;99.90;;;;;;5078511;28;20040;-61
2023/05/11 03:56:12;;;;;;;16.55;3.05;;;10.90;99.90;;;;;;5078507;28;20043;-61
2023/05/11 03:58:39;;;;;;;12.13;2.40;;;11.00;99.90;;;;;;5079105;28;20040;-61
2023/05/11 04:01:07;;;;;;;14.10;3.05;;;11.00;99.90;;;;;;5078475;28;20047;-61
2023/05/11 04:03:35;;;;;;;12.93;3.42;;;11.00;99.90;;;;;;5096537;28;20044;-60
2023/05/11 04:06:02;;;;;;;17.77;2.85;;;11.00;99.90;;;;;;5096771;28;20039;-60
2023/05/11 04:08:29;;;;;;;17.17;4.10;;;11.00;99.90;;;;;;5079117;28;20093;-60
2023/05/11 04:10:56;;;;;;;10.63;2.75;;;11.00;99.90;;;;;;5078380;28;20067;-61
2023/05/11 04:13:22;;;;;;;12.57;3.05;;;11.00;99.90;;;;;;5078871;28;20106;-61
2023/05/11 04:15:49;;;;;;;11.65;2.83;;;11.00;99.90;;;;;;5066140;28;20144;-61
2023/05/11 04:18:19;;;;;;;19.15;3.53;;;11.00;99.90;;;;;;5056422;28;20484;-61
2023/05/11 04:20:46;;;;;;;13.95;3.55;;;11.00;99.90;;;;;;5054817;28;20036;-60
2023/05/11 04:23:12;;;;;;;15.50;2.97;;;11.00;99.90;;;;;;5056207;28;20667;-61
2023/05/11 04:25:39;;;;;;;14.45;3.10;;;11.00;99.90;;;;;;5056496;28;20064;-60
2023/05/11 04:28:06;;;;;;;14.38;3.22;;;11.00;99.90;;;;;;5056323;28;20045;-60
2023/05/11 04:30:33;;;;;;;12.63;3.28;;;11.00;99.90;;;;;;5054481;28;20349;-60
2023/05/11 04:32:59;;;;;;;14.77;2.80;;;11.00;99.90;;;;;;5038417;28;20091;-61
2023/05/11 04:35:26;;;;;;;12.25;3.15;;;11.00;99.90;;;;;;5054527;28;20041;-60
2023/05/11 04:37:53;;;;;;;17.17;3.78;;;11.00;99.90;;;;;;5056251;28;20041;-61
2023/05/11 04:40:20;;;;;;;16.42;3.88;;;11.00;99.90;;;;;;5054873;28;20037;-60
2023/05/11 04:42:47;;;;;;;17.88;3.92;;;11.00;99.90;;;;;;5054920;28;20042;-61
2023/05/11 04:45:17;;;;;;;15.88;3.45;;;11.00;99.90;;;;;;5055905;28;20384;-60
2023/05/11 04:47:43;;;;;;;15.80;3.45;;;11.00;99.90;;;;;;5054975;28;20045;-61
2023/05/11 04:50:10;;;;;;;12.60;3.15;;;11.00;99.90;;;;;;5056524;28;20037;-61
2023/05/11 04:52:38;;;;;;;15.40;3.33;;;11.00;99.90;;;;;;5054917;28;20494;-61
2023/05/11 04:55:04;;;;;;;14.30;3.55;;;11.00;99.90;;;;;;5054557;28;20108;-60
2023/05/11 04:57:33;;;;;;;12.07;3.35;;;11.00;99.90;;;;;;5054992;28;20045;-60
2023/05/11 05:00:02;;;;;;;16.63;3.33;;;11.10;99.90;;;;;;5054496;28;20384;-61
2023/05/11 05:02:30;;;;;;;12.57;3.08;;;11.10;99.90;;;;;;5053389;28;20060;-61
2023/05/11 05:04:57;;;;;;;16.77;4.07;;;11.10;99.90;;;;;;5054445;28;20041;-61
2023/05/11 05:07:24;;;;;;;14.50;2.90;;;11.10;99.90;;;;;;5054921;28;20051;-61
2023/05/11 05:09:51;;;;;;;22.42;4.82;;;11.00;99.90;;;;;;5055487;28;20041;-61
2023/05/11 05:12:17;;;;;;;17.80;3.25;;;11.00;99.90;;;;;;5054752;28;20060;-61
2023/05/11 05:14:44;;;;;;;13.23;3.15;;;11.10;99.90;;;;;;5055476;28;20043;-61
2023/05/11 05:17:11;;;;;;;17.60;3.45;;;11.10;99.90;;;;;;5053838;28;20393;-61
2023/05/11 05:19:39;;;;;;;12.02;3.95;;;11.10;99.90;;;;;;5053972;28;20061;-60
2023/05/11 05:22:06;;;;;;;16.13;3.85;;;11.10;99.90;;;;;;5054329;28;20088;-61
2023/05/11 05:24:33;;;;;;;18.27;3.22;;;11.20;99.90;;;;;;5053785;28;20396;-60
2023/05/11 05:27:01;;;;;;;15.13;3.28;;;11.20;99.90;;;;;;5053995;28;20041;-61
2023/05/11 05:29:28;;;;;;;14.30;3.53;;;11.20;99.90;;;;;;5055312;28;20041;-61
2023/05/11 05:31:57;;;;;;;12.93;3.80;;;11.20;99.90;;;;;;5053694;28;20136;-60
2023/05/11 05:34:25;;;;;;;15.35;3.63;;;11.20;99.90;;;;;;5053596;28;20124;-61
2023/05/11 05:36:52;;;;;;;13.90;3.50;;;11.20;99.90;;;;;;5037672;28;20048;-61
2023/05/11 05:39:18;;;;;;;15.15;3.80;;;11.20;99.90;;;;;;5053556;28;20072;-60
2023/05/11 05:41:45;;;;;;;11.30;3.10;;;11.30;99.90;;;;;;5054852;28;20380;-60
2023/05/11 05:44:12;;;;;;;18.48;3.90;;;11.30;99.90;;;;;;5053807;28;20083;-61
2023/05/11 05:46:39;;;;;;;16.73;4.00;;;11.30;99.90;;;;;;5054891;28;20444;-61
2023/05/11 05:49:06;;;;;;;17.83;3.25;;;11.30;99.90;;;;;;5053691;28;20086;-61
2023/05/11 05:51:35;;;;;;;17.48;4.30;;;11.30;99.90;;;;;;5053286;28;20526;-61
2023/05/11 05:54:02;;;;;;;17.85;3.97;;;11.30;99.90;;;;;;5054030;28;20392;-61
2023/05/11 05:56:30;;;;;;;17.45;4.03;;;11.30;99.90;;;;;;5053508;28;20103;-61
2023/05/11 05:58:58;;;;;;;15.35;4.15;;;11.30;99.90;;;;;;5053525;28;20076;-61
2023/05/11 06:01:26;;;;;;;14.55;3.83;;;11.30;99.90;;;;;;5053498;28;20061;-61
2023/05/11 06:03:53;;;;;;;21.08;4.20;;;11.40;99.90;;;;;;5053432;28;20148;-63
2023/05/11 06:06:20;;;;;;;15.65;4.32;;;11.30;99.90;;;;;;5053610;28;20049;-60
2023/05/11 06:08:47;;;;;;;18.45;4.40;;;11.40;99.90;;;;;;5053132;28;20091;-60
2023/05/11 06:11:14;;;;;;;16.63;3.85;;;11.40;99.90;;;;;;5052909;28;20056;-60
2023/05/11 06:13:41;;;;;;;18.83;4.18;;;11.40;99.90;;;;;;5053228;28;20048;-61
2023/05/11 06:16:08;;;;;;;16.15;4.18;;;11.40;99.90;;;;;;5076748;28;20081;-60
2023/05/11 06:18:36;;;;;;;17.27;5.43;;;11.40;99.90;;;;;;5076814;28;20127;-61
2023/05/11 06:21:05;;;;;;;18.65;4.85;;;11.40;99.90;;;;;;5076046;28;20040;-60
2023/05/11 06:23:32;;;;;;;13.98;4.80;;;11.40;99.90;;;;;;5076350;28;20046;-61
2023/05/11 06:25:59;;;;;;;14.65;4.90;;;11.40;99.90;;;;;;5094587;28;20047;-61
2023/05/11 06:28:30;;;;;;;19.35;4.65;;;11.40;99.90;;;;;;5076604;28;20040;-60
2023/05/11 06:31:02;;;;;;;24.80;5.15;;;11.50;99.90;;;;;;5075923;28;20052;-60
2023/05/11 06:33:33;;;;;;;22.98;5.28;;;11.50;99.90;;;;;;5076395;28;20056;-61
2023/05/11 06:36:00;;;;;;;18.75;5.18;;;11.60;99.90;;;;;;5076099;28;20403;-61
2023/05/11 06:38:30;;;;;;;15.63;4.63;;;11.60;99.90;;;;;;5094232;28;20111;-61
2023/05/11 06:40:57;;;;;;;20.40;5.03;;;11.60;99.90;;;;;;5075580;28;20036;-60
2023/05/11 06:43:24;;;;;;;17.63;5.10;;;11.70;99.90;;;;;;5094147;28;20070;-61
2023/05/11 06:45:51;;;;;;;16.13;5.07;;;11.70;99.90;;;;;;5075955;28;20131;-61
2023/05/11 06:48:22;;;;;;;19.23;5.20;;;11.80;99.90;;;;;;5076406;28;20054;-61
2023/05/11 06:50:49;;;;;;;14.70;4.97;;;11.80;99.90;;;;;;5075389;28;20048;-60
2023/05/11 06:53:16;;;;;;;16.77;5.30;;;11.90;99.90;;;;;;5094166;28;20040;-60
2023/05/11 06:55:43;;;;;;;16.08;5.03;;;12.00;99.90;;;;;;5094313;28;20243;-60
2023/05/11 06:58:10;;;;;;;18.80;5.35;;;12.00;99.90;;;;;;5076067;28;20040;-61
2023/05/11 07:00:37;;;;;;;19.00;4.93;;;12.10;99.90;;;;;;5075105;28;20052;-61
2023/05/11 07:03:03;;;;;;;17.48;5.55;;;12.20;99.90;;;;;;5093374;28;20086;-60
2023/05/11 07:05:30;;;;;;;17.23;4.85;;;12.30;99.90;;;;;;5093700;28;20040;-61
2023/05/11 07:07:57;;;;;;;17.60;5.38;;;12.30;99.90;;;;;;5093621;28;20124;-61
2023/05/11 07:10:24;;;;;;;15.82;4.90;;;12.40;99.90;;;;;;5093812;28;20391;-61
2023/05/11 07:12:50;;;;;;;15.85;5.13;;;12.50;99.90;;;;;;5093610;28;20468;-60
2023/05/11 07:15:17;;;;;;;17.20;5.68;;;12.50;99.90;;;;;;5093954;28;20051;-61
2023/05/11 07:17:46;;;;;;;19.42;5.75;;;12.60;99.90;;;;;;5093807;28;20158;-60
2023/05/11 07:20:13;;;;;;;18.80;5.32;;;12.60;99.90;;;;;;5075706;28;20048;-61
2023/05/11 07:22:40;;;;;;;16.83;5.72;;;12.70;99.90;;;;;;5075751;28;20035;-60
2023/05/11 07:25:08;;;;;;;21.20;6.20;;;12.70;99.90;;;;;;5095746;28;20055;-61
2023/05/11 07:27:35;;;;;;;16.23;5.18;;;12.80;99.90;;;;;;5097980;28;20059;-60
2023/05/11 07:30:02;;;;;;;17.08;5.13;;;12.80;99.90;;;;;;5097596;28;20040;-60
2023/05/11 07:32:29;;;;;;;20.05;5.60;;;12.90;99.90;;;;;;5097748;28;20040;-60
2023/05/11 07:34:56;;;;;;;17.33;5.82;;;13.00;99.90;;;;;;5097674;28;20089;-61
2023/05/11 07:37:22;;;;;;;18.40;5.38;;;13.00;99.90;;;;;;5097611;28;20044;-61
2023/05/11 07:39:49;;;;;;;17.48;5.38;;;13.10;99.90;;;;;;5078992;28;20048;-60
2023/05/11 07:42:16;;;;;;;20.50;6.47;;;13.10;99.90;;;;;;5097242;28;20048;-61
2023/05/11 07:44:43;;;;;;;18.25;5.28;;;13.20;99.90;;;;;;5097140;28;20422;-61
2023/05/11 07:47:10;;;;;;;16.98;5.70;;;13.40;99.90;;;;;;5097671;28;20045;-61
2023/05/11 07:49:37;;;;;;;22.42;5.32;;;13.50;99.90;;;;;;5079372;28;20047;-61
2023/05/11 07:52:09;;;;;;;16.25;5.72;;;13.60;99.90;;;;;;5097334;28;20391;-61
2023/05/11 07:54:37;;;;;;;20.30;5.82;;;13.60;99.90;;;;;;5097329;28;20078;-61
2023/05/11 07:57:04;;;;;;;18.20;5.50;;;13.70;99.90;;;;;;5097137;28;20183;-61
2023/05/11 07:59:31;;;;;;;17.92;5.68;;;13.80;99.90;;;;;;5096720;28;20126;-60
2023/05/11 08:01:58;;;;;;;17.27;5.07;;;13.70;99.90;;;;;;5096751;28;20467;-61
2023/05/11 08:04:25;;;;;;;15.50;4.70;;;13.70;99.90;;;;;;5097281;28;20036;-61
2023/05/11 08:06:52;;;;;;;15.48;4.78;;;13.90;99.90;;;;;;5097113;28;20493;-61
2023/05/11 08:09:18;;;;;;;20.05;5.97;;;14.00;99.90;;;;;;5096827;28;20119;-61
2023/05/11 08:11:45;;;;;;;17.50;5.15;;;14.10;99.90;;;;;;5095721;28;20508;-61
2023/05/11 08:14:12;;;;;;;17.25;5.15;;;14.30;99.90;;;;;;5096539;28;20044;-62
2023/05/11 08:16:39;;;;;;;11.10;4.28;;;14.30;99.90;;;;;;5096639;28;20066;-60
2023/05/11 08:19:06;;;;;;;14.85;4.20;;;14.40;99.90;;;;;;5096789;28;20047;-61
2023/05/11 08:21:32;;;;;;;13.65;4.38;;;14.50;99.90;;;;;;5077887;28;20075;-61
2023/05/11 08:23:59;;;;;;;14.38;4.07;;;14.60;99.90;;;;;;5096210;28;20044;-61
2023/05/11 08:26:27;;;;;;;12.57;4.13;;;14.60;99.90;;;;;;5096057;28;20036;-61
2023/05/11 08:28:53;;;;;;;15.35;4.43;;;14.70;99.90;;;;;;5096274;28;20036;-61
2023/05/11 08:31:20;;;;;;;14.80;4.85;;;14.80;99.90;;;;;;5096219;28;20078;-61
2023/05/11 08:33:47;;;;;;;20.65;4.43;;;14.80;99.90;;;;;;5096414;28;20048;-61
2023/05/11 08:36:14;;;;;;;13.93;4.10;;;14.80;99.90;;;;;;5094839;28;20382;-61
2023/05/11 08:38:41;;;;;;;14.32;4.18;;;14.90;99.90;;;;;;5095920;28;20125;-61
2023/05/11 08:41:08;;;;;;;13.35;4.25;;;14.90;99.90;;;;;;5095821;28;20471;-61
2023/05/11 08:43:35;;;;;;;11.95;3.83;;;15.00;99.90;;;;;;5096099;28;20044;-61
2023/05/11 08:46:01;;;;;;;14.23;3.78;;;14.90;99.90;;;;;;5096103;28;20040;-61
2023/05/11 08:48:29;;;;;;;10.95;3.72;;;15.00;99.90;;;;;;5077724;28;20040;-61
2023/05/11 08:50:56;;;;;;;13.65;3.80;;;14.90;99.90;;;;;;5096351;28;20051;-61
2023/05/11 08:53:23;;;;;;;12.13;3.85;;;14.90;99.90;;;;;;5096108;28;20074;-61
2023/05/11 08:55:50;;;;;;;16.85;4.32;;;15.00;99.90;;;;;;5078137;28;20043;-62
2023/05/11 08:58:23;;;;;;;12.32;3.80;;;15.10;99.90;;;;;;5095429;28;20454;-61
2023/05/11 09:00:50;;;;;;;12.90;3.88;;;15.10;99.90;;;;;;5095317;28;20462;-61
2023/05/11 09:03:16;;;;;;;16.55;4.22;;;15.20;99.90;;;;;;5095863;28;20118;-61
2023/05/11 09:05:43;;;;;;;13.98;4.55;;;15.30;99.90;;;;;;5095938;28;20048;-62
2023/05/11 09:08:10;;;;;;;12.43;4.20;;;15.30;99.90;;;;;;5095763;28;20047;-62
2023/05/11 09:10:37;;;;;;;13.80;3.85;;;15.30;99.90;;;;;;5095791;28;20047;-61
2023/05/11 09:13:04;;;;;;;10.60;3.78;;;15.30;99.90;;;;;;5095580;28;20421;-61
2023/05/11 09:15:31;;;;;;;16.38;4.40;;;15.40;99.90;;;;;;5095334;28;20062;-61
2023/05/11 09:18:03;;;;;;;13.60;4.47;;;15.40;99.90;;;;;;5095181;28;20123;-62
2023/05/11 09:20:30;;;;;;;12.80;4.03;;;15.30;99.90;;;;;;5094873;28;20040;-61
2023/05/11 09:22:57;;;;;;;10.35;3.30;;;15.30;99.90;;;;;;5095272;28;20097;-60
2023/05/11 09:25:24;;;;;;;11.52;3.35;;;15.30;99.90;;;;;;5095588;28;20074;-61
2023/05/11 09:27:50;;;;;;;7.82;2.90;;;15.20;99.90;;;;;;5095170;28;20051;-61
2023/05/11 09:30:17;;;;;;;9.93;3.00;;;15.10;99.90;;;;;;5094595;28;20059;-60
2023/05/11 09:32:50;;;;;;;11.23;3.28;;;15.10;99.90;;;;;;5095439;28;20131;-61
2023/05/11 09:35:17;;;;;;;15.57;3.33;;;15.10;99.90;;;;;;5094745;28;20127;-60
2023/05/11 09:37:44;;;;;;;9.32;3.30;;;15.10;99.90;;;;;;5094573;28;20036;-60
2023/05/11 09:40:10;;;;;;;9.43;3.25;;;15.10;99.90;;;;;;5094868;28;20075;-61
2023/05/11 09:42:40;;;;;;;13.63;3.42;;;15.00;99.90;;;;;;5095133;28;20074;-61
2023/05/11 09:45:07;;;;;;;10.38;2.95;;;14.90;99.90;;;;;;5094713;28;20094;-60
2023/05/11 09:47:34;;;;;;;11.80;3.53;;;14.90;99.90;;;;;;5094273;28;20067;-61
2023/05/11 09:50:00;;;;;;;9.10;3.30;;;14.90;99.90;;;;;;5094507;28;20398;-61
2023/05/11 09:52:27;;;;;;;9.95;2.75;;;14.90;99.90;;;;;;5094416;28;20051;-61
2023/05/11 09:54:54;;;;;;;9.35;3.30;;;14.90;99.90;;;;;;5076444;28;20097;-62
2023/05/11 09:57:21;;;;;;;11.38;3.25;;;15.00;99.90;;;;;;5094946;28;20040;-61
2023/05/11 09:59:47;;;;;;;13.57;3.50;;;15.10;99.90;;;;;;5094398;28;20058;-61
2023/05/11 10:02:14;;;;;;;11.40;2.67;;;15.20;99.90;;;;;;5093975;28;20036;-61
2023/05/11 10:04:41;;;;;;;12.40;2.70;;;15.30;99.90;;;;;;5094692;28;20120;-61
2023/05/11 10:07:08;;;;;;;10.57;3.03;;;15.40;99.90;;;;;;5094603;28;20036;-61
2023/05/11 10:09:35;;;;;;;7.93;2.40;;;15.50;99.90;;;;;;5059662;28;20040;-60
2023/05/11 10:12:01;;;;;;;6.15;2.05;;;15.60;99.90;;;;;;5094583;28;20577;-61
2023/05/11 10:14:28;;;;;;;7.88;2.28;;;15.60;99.90;;;;;;5093880;28;20048;-61
2023/05/11 10:16:55;;;;;;;7.70;2.20;;;15.60;99.90;;;;;;5093946;28;20058;-61
2023/05/11 10:19:22;;;;;;;9.05;2.00;;;15.70;99.90;;;;;;5094174;28;20071;-62
2023/05/11 10:21:48;;;;;;;5.22;1.92;;;15.80;99.90;;;;;;5093947;28;20367;-61
2023/05/11 10:24:15;;;;;;;6.63;2.13;;;15.90;99.90;;;;;;5094012;28;20357;-61
2023/05/11 10:26:45;;;;;;;8.80;1.90;;;16.00;99.90;;;;;;5093726;28;20048;-61
2023/05/11 10:29:12;;;;;;;7.90;2.35;;;16.00;99.90;;;;;;5093868;28;20132;-61
2023/05/11 10:31:39;;;;;;;7.30;2.42;;;16.00;99.90;;;;;;5093474;28;20467;-61
2023/05/11 10:34:06;;;;;;;7.72;2.40;;;16.10;99.90;;;;;;5093263;28;20440;-61
2023/05/11 10:36:33;;;;;;;10.52;2.38;;;16.40;99.90;;;;;;5093393;28;20119;-62
2023/05/11 10:38:59;;;;;;;10.52;2.55;;;16.70;99.90;;;;;;5093182;28;20119;-60
2023/05/11 10:41:26;;;;;;;5.95;1.95;;;16.90;99.90;;;;;;5093141;28;20040;-61
2023/05/11 10:43:53;;;;;;;9.88;2.47;;;17.10;99.90;;;;;;5093601;28;20135;-62
2023/05/11 10:46:20;;;;;;;5.05;1.90;;;17.20;99.90;;;;;;5093453;28;20052;-61
2023/05/11 10:48:47;;;;;;;4.72;1.55;;;17.30;99.90;;;;;;5093632;28;20036;-61
2023/05/11 10:51:13;;;;;;;8.60;2.08;;;17.40;99.90;;;;;;5092937;28;20040;-61
2023/05/11 10:53:40;;;;;;;9.05;2.20;;;17.40;99.90;;;;;;5093376;28;20352;-61
2023/05/11 10:56:08;;;;;;;8.73;1.70;;;17.40;99.90;;;;;;5092977;28;20399;-61
2023/05/11 10:58:35;;;;;;;6.65;1.90;;;17.40;99.90;;;;;;5093157;28;20434;-61
2023/05/11 11:01:02;;;;;;;3.35;1.45;;;17.50;99.90;;;;;;5092860;28;20055;-61
2023/05/11 11:03:29;;;;;;;4.60;1.67;;;17.60;99.90;;;;;;5075180;28;20055;-61
2023/05/11 11:05:56;;;;;;;5.82;1.63;;;17.60;99.90;;;;;;5093453;28;20034;-61
2023/05/11 11:08:26;;;;;;;6.22;1.50;;;17.70;99.90;;;;;;5093579;28;20048;-61
2023/05/11 11:10:53;;;;;;;6.25;1.60;;;17.70;99.90;;;;;;5093035;28;20056;-61
2023/05/11 11:13:22;;;;;;;5.03;1.55;;;17.70;99.90;;;;;;5075144;28;20063;-61
2023/05/11 11:15:48;;;;;;;11.73;2.10;;;17.80;99.90;;;;;;5092816;28;20172;-61
2023/05/11 11:18:15;;;;;;;7.22;2.13;;;17.90;99.90;;;;;;5093322;28;20357;-62
2023/05/11 11:20:43;;;;;;;8.32;2.33;;;17.90;99.90;;;;;;5093107;28;20032;-62
2023/05/11 11:23:10;;;;;;;10.70;2.28;;;18.00;99.90;;;;;;5093221;28;20044;-62
2023/05/11 11:25:37;;;;;;;6.78;2.28;;;18.10;99.90;;;;;;5093948;28;20044;-62
2023/05/11 11:28:04;;;;;;;10.32;2.13;;;18.20;99.90;;;;;;5093407;28;20498;-62
2023/05/11 11:30:31;;;;;;;7.63;2.00;;;18.40;99.90;;;;;;5075316;28;20059;-62
2023/05/11 11:32:58;;;;;;;9.23;2.38;;;18.50;99.90;;;;;;5093756;28;20086;-62
2023/05/11 11:35:24;;;;;;;5.75;1.98;;;18.60;99.90;;;;;;5093624;28;20059;-62
2023/05/11 11:37:51;;;;;;;5.82;1.90;;;18.70;99.90;;;;;;5093201;28;20044;-62
2023/05/11 11:40:18;;;;;;;6.28;1.80;;;18.80;99.90;;;;;;5075446;28;20139;-62
2023/05/11 11:42:45;;;;;;;11.05;1.77;;;18.90;99.90;;;;;;5075415;28;20109;-61
2023/05/11 11:45:11;;;;;;;6.82;1.65;;;18.80;99.90;;;;;;5093550;28;20143;-61
2023/05/11 11:47:38;;;;;;;4.78;1.80;;;18.70;99.90;;;;;;5093133;28;20376;-62
2023/05/11 11:50:05;;;;;;;7.47;2.05;;;18.80;99.90;;;;;;5075340;28;20135;-62
2023/05/11 11:52:32;;;;;;;8.35;2.00;;;18.80;99.90;;;;;;5093466;28;20044;-62
2023/05/11 11:54:59;;;;;;;5.78;1.67;;;18.80;99.90;;;;;;5093267;28;20051;-62
2023/05/11 11:57:26;;;;;;;8.70;1.58;;;18.90;99.90;;;;;;5093563;28;20036;-61
2023/05/11 11:59:52;;;;;;;6.60;1.70;;;18.90;99.90;;;;;;5093042;28;20040;-61
2023/05/11 12:02:19;;;;;;;5.93;1.60;;;19.00;99.90;;;;;;5093452;28;20040;-62
2023/05/11 12:04:46;;;;;;;5.75;1.73;;;18.90;99.90;;;;;;5093369;28;20048;-60
2023/05/11 12:07:13;;;;;;;8.85;1.58;;;18.90;99.90;;;;;;5093018;28;20043;-61
2023/05/11 12:09:40;;;;;;;4.00;1.45;;;18.80;99.90;;;;;;5074695;28;20040;-61
2023/05/11 12:12:06;;;;;;;6.68;1.75;;;18.80;99.90;;;;;;5078393;28;20067;-61
2023/05/11 12:14:33;;;;;;;15.60;2.10;;;18.90;99.90;;;;;;5096974;28;20043;-62
2023/05/11 12:17:00;;;;;;;7.45;1.63;;;18.80;99.90;;;;;;5096575;28;20425;-61
2023/05/11 12:19:27;;;;;;;5.53;1.83;;;18.90;99.90;;;;;;5096649;28;20036;-61
2023/05/11 12:21:54;;;;;;;6.22;1.50;;;18.90;99.90;;;;;;5097054;28;20037;-62
2023/05/11 12:24:21;;;;;;;6.53;1.42;;;19.00;99.90;;;;;;5079250;28;20119;-62
2023/05/11 12:26:48;;;;;;;5.30;1.67;;;19.10;99.90;;;;;;5096628;28;20101;-61
2023/05/11 12:29:14;;;;;;;5.60;1.55;;;19.10;99.90;;;;;;5096482;28;20068;-61
2023/05/11 12:31:41;;;;;;;7.07;1.60;;;19.20;99.90;;;;;;5096392;28;20043;-63
2023/05/11 12:34:10;;;;;;;6.18;1.50;;;19.10;99.90;;;;;;5096781;28;20044;-61
2023/05/11 12:36:37;;;;;;;4.82;1.40;;;19.20;99.90;;;;;;5096951;28;20048;-61
2023/05/11 12:39:03;;;;;;;3.38;1.25;;;19.20;99.90;;;;;;5096433;28;20418;-62